Terminal Aerodrome Forecast
Issued by NWS

Home | Current Version | Previous Version | Text Only | Print | Product List | Glossary On
Versions: 1 2 3 4 5 6 7 8 9 10 11 12 13 14
800
FTUS43 KBIS 051120
TAFDIK
TAF
KDIK 051120Z 0512/0612 20008KT P6SM SKC
     FM060100 17008KT P6SM FEW250
     FM060800 20006KT P6SM FEW250
     FM061000 24007KT P6SM FEW250=

USA.gov is the U.S. government's official web portal to all federal, state and local government web resources and services.